sensor_id;sensor_type;location;lat;lon;timestamp;pressure;altitude;pressure_sealevel;temperature;humidity
12203;BME280;6164;42.178;24.622;2023-11-21T00:01:01;99480.19;;;8.26;100.00
12203;BME280;6164;42.178;24.622;2023-11-21T00:03:29;99478.56;;;8.25;100.00
12203;BME280;6164;42.178;24.622;2023-11-21T00:05:55;99478.72;;;8.24;100.00
12203;BME280;6164;42.178;24.622;2023-11-21T00:08:23;99476.34;;;8.21;100.00
12203;BME280;6164;42.178;24.622;2023-11-21T00:10:50;99480.44;;;8.15;100.00
12203;BME280;6164;42.178;24.622;2023-11-21T00:13:17;99478.72;;;8.06;100.00
12203;BME280;6164;42.178;24.622;2023-11-21T00:15:44;99479.72;;;8.05;100.00
12203;BME280;6164;42.178;24.622;2023-11-21T00:18:10;99470.63;;;7.99;100.00
12203;BME280;6164;42.178;24.622;2023-11-21T00:20:37;99461.00;;;8.08;100.00
12203;BME280;6164;42.178;24.622;2023-11-21T00:23:03;99472.19;;;8.10;100.00
12203;BME280;6164;42.178;24.622;2023-11-21T00:25:31;99468.25;;;8.14;100.00
12203;BME280;6164;42.178;24.622;2023-11-21T00:27:58;99467.25;;;8.07;100.00
12203;BME280;6164;42.178;24.622;2023-11-21T00:30:26;99467.53;;;8.04;100.00
12203;BME280;6164;42.178;24.622;2023-11-21T00:32:54;99463.22;;;7.95;100.00
12203;BME280;6164;42.178;24.622;2023-11-21T00:35:20;99456.09;;;7.87;100.00
12203;BME280;6164;42.178;24.622;2023-11-21T00:37:47;99468.44;;;7.87;100.00
12203;BME280;6164;42.178;24.622;2023-11-21T00:40:15;99462.75;;;7.74;100.00
12203;BME280;6164;42.178;24.622;2023-11-21T00:42:45;99458.72;;;7.62;100.00
12203;BME280;6164;42.178;24.622;2023-11-21T00:45:12;99461.91;;;7.73;100.00
12203;BME280;6164;42.178;24.622;2023-11-21T00:47:39;99455.66;;;7.74;100.00
12203;BME280;6164;42.178;24.622;2023-11-21T00:50:06;99460.34;;;7.80;100.00
12203;BME280;6164;42.178;24.622;2023-11-21T00:52:32;99458.09;;;7.68;100.00
12203;BME280;6164;42.178;24.622;2023-11-21T00:55:00;99459.53;;;7.45;100.00
12203;BME280;6164;42.178;24.622;2023-11-21T00:57:28;99460.03;;;7.23;100.00
12203;BME280;6164;42.178;24.622;2023-11-21T00:59:56;99456.13;;;7.09;100.00
12203;BME280;6164;42.178;24.622;2023-11-21T01:02:23;99466.88;;;6.89;100.00
12203;BME280;6164;42.178;24.622;2023-11-21T01:04:50;99468.78;;;6.79;100.00
12203;BME280;6164;42.178;24.622;2023-11-21T01:07:17;99463.22;;;6.82;100.00
12203;BME280;6164;42.178;24.622;2023-11-21T01:09:45;99469.34;;;6.72;100.00
12203;BME280;6164;42.178;24.622;2023-11-21T01:12:12;99467.69;;;6.72;100.00
12203;BME280;6164;42.178;24.622;2023-11-21T01:14:38;99467.16;;;6.68;100.00
12203;BME280;6164;42.178;24.622;2023-11-21T01:17:06;99466.78;;;6.63;100.00
12203;BME280;6164;42.178;24.622;2023-11-21T01:19:33;99462.59;;;6.70;100.00
12203;BME280;6164;42.178;24.622;2023-11-21T01:21:59;99461.00;;;6.77;100.00
12203;BME280;6164;42.178;24.622;2023-11-21T01:24:26;99468.03;;;6.86;100.00
12203;BME280;6164;42.178;24.622;2023-11-21T01:26:52;99464.78;;;6.92;100.00
12203;BME280;6164;42.178;24.622;2023-11-21T01:29:19;99464.53;;;6.95;100.00
12203;BME280;6164;42.178;24.622;2023-11-21T01:31:45;99459.28;;;6.95;100.00
12203;BME280;6164;42.178;24.622;2023-11-21T01:34:13;99463.53;;;6.96;100.00
12203;BME280;6164;42.178;24.622;2023-11-21T01:36:40;99467.38;;;7.02;100.00
12203;BME280;6164;42.178;24.622;2023-11-21T01:39:07;99460.16;;;7.04;100.00
12203;BME280;6164;42.178;24.622;2023-11-21T01:41:33;99464.44;;;7.05;100.00
12203;BME280;6164;42.178;24.622;2023-11-21T01:44:00;99466.53;;;7.01;100.00
12203;BME280;6164;42.178;24.622;2023-11-21T01:46:27;99473.06;;;6.97;100.00
12203;BME280;6164;42.178;24.622;2023-11-21T01:48:54;99469.09;;;6.93;100.00
12203;BME280;6164;42.178;24.622;2023-11-21T01:51:22;99462.16;;;6.92;100.00
12203;BME280;6164;42.178;24.622;2023-11-21T01:53:48;99462.31;;;6.91;100.00
12203;BME280;6164;42.178;24.622;2023-11-21T01:56:15;99464.13;;;6.90;100.00
12203;BME280;6164;42.178;24.622;2023-11-21T01:58:42;99462.47;;;6.89;100.00
12203;BME280;6164;42.178;24.622;2023-11-21T02:01:10;99460.97;;;6.87;100.00
12203;BME280;6164;42.178;24.622;2023-11-21T02:03:36;99454.50;;;6.81;100.00
12203;BME280;6164;42.178;24.622;2023-11-21T02:06:03;99452.44;;;6.57;100.00
12203;BME280;6164;42.178;24.622;2023-11-21T02:08:32;99449.19;;;6.46;100.00
12203;BME280;6164;42.178;24.622;2023-11-21T02:10:58;99449.47;;;6.43;100.00
12203;BME280;6164;42.178;24.622;2023-11-21T02:13:25;99456.25;;;6.45;100.00
12203;BME280;6164;42.178;24.622;2023-11-21T02:15:51;99455.25;;;6.46;100.00
12203;BME280;6164;42.178;24.622;2023-11-21T02:18:19;99452.50;;;6.48;100.00
12203;BME280;6164;42.178;24.622;2023-11-21T02:20:47;99456.91;;;6.47;100.00
12203;BME280;6164;42.178;24.622;2023-11-21T02:23:15;99461.50;;;6.45;100.00
12203;BME280;6164;42.178;24.622;2023-11-21T02:25:41;99460.81;;;6.43;100.00
12203;BME280;6164;42.178;24.622;2023-11-21T02:28:08;99468.13;;;6.40;100.00
12203;BME280;6164;42.178;24.622;2023-11-21T02:30:37;99469.91;;;6.39;100.00
12203;BME280;6164;42.178;24.622;2023-11-21T02:33:04;99470.22;;;6.36;100.00
12203;BME280;6164;42.178;24.622;2023-11-21T02:35:31;99463.31;;;6.35;100.00
12203;BME280;6164;42.178;24.622;2023-11-21T02:37:58;99460.59;;;6.27;100.00
12203;BME280;6164;42.178;24.622;2023-11-21T02:40:26;99459.81;;;6.17;100.00
12203;BME280;6164;42.178;24.622;2023-11-21T02:42:52;99454.97;;;6.22;100.00
12203;BME280;6164;42.178;24.622;2023-11-21T02:45:19;99462.97;;;6.21;100.00
12203;BME280;6164;42.178;24.622;2023-11-21T02:47:46;99469.31;;;6.18;100.00
12203;BME280;6164;42.178;24.622;2023-11-21T02:50:14;99467.97;;;6.14;100.00
12203;BME280;6164;42.178;24.622;2023-11-21T02:52:40;99470.44;;;6.06;100.00
12203;BME280;6164;42.178;24.622;2023-11-21T02:55:07;99469.09;;;6.02;100.00
12203;BME280;6164;42.178;24.622;2023-11-21T02:57:35;99468.84;;;5.96;100.00
12203;BME280;6164;42.178;24.622;2023-11-21T03:00:02;99467.59;;;5.81;100.00
12203;BME280;6164;42.178;24.622;2023-11-21T03:02:32;99466.38;;;5.75;100.00
12203;BME280;6164;42.178;24.622;2023-11-21T03:05:01;99482.22;;;5.74;100.00
12203;BME280;6164;42.178;24.622;2023-11-21T03:07:30;99483.63;;;5.78;100.00
12203;BME280;6164;42.178;24.622;2023-11-21T03:09:56;99483.75;;;5.76;100.00
12203;BME280;6164;42.178;24.622;2023-11-21T03:12:23;99487.19;;;5.77;100.00
12203;BME280;6164;42.178;24.622;2023-11-21T03:14:51;99484.69;;;5.75;100.00
12203;BME280;6164;42.178;24.622;2023-11-21T03:17:19;99483.34;;;5.71;100.00
12203;BME280;6164;42.178;24.622;2023-11-21T03:19:46;99487.75;;;5.71;100.00
12203;BME280;6164;42.178;24.622;2023-11-21T03:22:12;99487.19;;;5.67;100.00
12203;BME280;6164;42.178;24.622;2023-11-21T03:24:39;99487.34;;;5.66;100.00
12203;BME280;6164;42.178;24.622;2023-11-21T03:27:06;99489.41;;;5.62;100.00
12203;BME280;6164;42.178;24.622;2023-11-21T03:29:33;99486.94;;;5.61;100.00
12203;BME280;6164;42.178;24.622;2023-11-21T03:32:01;99487.34;;;5.56;100.00
12203;BME280;6164;42.178;24.622;2023-11-21T03:34:27;99485.81;;;5.54;100.00
12203;BME280;6164;42.178;24.622;2023-11-21T03:36:54;99481.84;;;5.50;100.00
12203;BME280;6164;42.178;24.622;2023-11-21T03:39:21;99491.63;;;5.48;100.00
12203;BME280;6164;42.178;24.622;2023-11-21T03:41:48;99497.97;;;5.45;100.00
12203;BME280;6164;42.178;24.622;2023-11-21T03:44:14;99498.13;;;5.44;100.00
12203;BME280;6164;42.178;24.622;2023-11-21T03:46:42;99498.13;;;5.44;100.00
12203;BME280;6164;42.178;24.622;2023-11-21T03:49:10;99492.47;;;5.38;100.00
12203;BME280;6164;42.178;24.622;2023-11-21T03:51:37;99490.25;;;5.34;100.00
12203;BME280;6164;42.178;24.622;2023-11-21T03:54:04;99493.84;;;5.33;100.00
12203;BME280;6164;42.178;24.622;2023-11-21T03:56:30;99504.59;;;5.30;100.00
12203;BME280;6164;42.178;24.622;2023-11-21T03:58:57;99506.66;;;5.26;100.00
12203;BME280;6164;42.178;24.622;2023-11-21T04:01:24;99512.81;;;5.16;100.00
12203;BME280;6164;42.178;24.622;2023-11-21T04:03:51;99508.97;;;5.10;100.00
12203;BME280;6164;42.178;24.622;2023-11-21T04:06:19;99497.97;;;5.07;100.00
12203;BME280;6164;42.178;24.622;2023-11-21T04:08:45;99508.84;;;5.02;100.00
12203;BME280;6164;42.178;24.622;2023-11-21T04:11:12;99500.81;;;4.94;100.00
12203;BME280;6164;42.178;24.622;2023-11-21T04:13:39;99501.47;;;4.77;100.00
12203;BME280;6164;42.178;24.622;2023-11-21T04:16:06;99498.47;;;4.82;100.00
12203;BME280;6164;42.178;24.622;2023-11-21T04:18:33;99493.22;;;4.82;100.00
12203;BME280;6164;42.178;24.622;2023-11-21T04:20:59;99495.69;;;4.74;100.00
12203;BME280;6164;42.178;24.622;2023-11-21T04:23:28;99507.94;;;4.73;100.00
12203;BME280;6164;42.178;24.622;2023-11-21T04:25:55;99514.63;;;4.66;100.00
12203;BME280;6164;42.178;24.622;2023-11-21T04:28:22;99515.59;;;4.65;100.00
12203;BME280;6164;42.178;24.622;2023-11-21T04:30:49;99513.13;;;4.64;100.00
12203;BME280;6164;42.178;24.622;2023-11-21T04:33:16;99513.41;;;4.61;100.00
12203;BME280;6164;42.178;24.622;2023-11-21T04:35:42;99519.97;;;4.55;100.00
12203;BME280;6164;42.178;24.622;2023-11-21T04:38:09;99530.38;;;4.36;100.00
12203;BME280;6164;42.178;24.622;2023-11-21T04:40:37;99528.06;;;4.22;100.00
12203;BME280;6164;42.178;24.622;2023-11-21T04:43:03;99523.38;;;4.16;100.00
12203;BME280;6164;42.178;24.622;2023-11-21T04:45:30;99531.97;;;4.07;100.00
12203;BME280;6164;42.178;24.622;2023-11-21T04:47:57;99528.44;;;4.08;100.00
12203;BME280;6164;42.178;24.622;2023-11-21T04:50:23;99533.53;;;4.10;100.00
12203;BME280;6164;42.178;24.622;2023-11-21T04:52:52;99522.91;;;4.01;100.00
12203;BME280;6164;42.178;24.622;2023-11-21T04:55:18;99521.53;;;4.07;100.00
12203;BME280;6164;42.178;24.622;2023-11-21T04:57:47;99515.50;;;4.07;100.00
12203;BME280;6164;42.178;24.622;2023-11-21T05:00:13;99518.25;;;4.05;100.00
12203;BME280;6164;42.178;24.622;2023-11-21T05:02:41;99518.75;;;3.99;100.00
12203;BME280;6164;42.178;24.622;2023-11-21T05:05:09;99517.09;;;3.98;100.00
12203;BME280;6164;42.178;24.622;2023-11-21T05:07:36;99516.16;;;3.78;100.00
12203;BME280;6164;42.178;24.622;2023-11-21T05:10:03;99531.63;;;3.70;100.00
12203;BME280;6164;42.178;24.622;2023-11-21T05:12:35;99533.06;;;3.63;100.00
12203;BME280;6164;42.178;24.622;2023-11-21T05:15:05;99540.47;;;3.58;100.00
12203;BME280;6164;42.178;24.622;2023-11-21T05:17:35;99532.03;;;3.55;100.00
12203;BME280;6164;42.178;24.622;2023-11-21T05:20:01;99541.78;;;3.53;100.00
12203;BME280;6164;42.178;24.622;2023-11-21T05:22:29;99542.22;;;3.58;100.00
12203;BME280;6164;42.178;24.622;2023-11-21T05:24:55;99539.75;;;3.56;100.00
12203;BME280;6164;42.178;24.622;2023-11-21T05:27:22;99536.81;;;3.50;100.00
12203;BME280;6164;42.178;24.622;2023-11-21T05:29:48;99547.44;;;3.37;100.00
12203;BME280;6164;42.178;24.622;2023-11-21T05:32:17;99545.88;;;3.35;100.00
12203;BME280;6164;42.178;24.622;2023-11-21T05:34:43;99535.03;;;3.19;100.00
12203;BME280;6164;42.178;24.622;2023-11-21T05:37:10;99547.06;;;2.99;100.00
12203;BME280;6164;42.178;24.622;2023-11-21T05:39:36;99552.53;;;2.96;100.00
12203;BME280;6164;42.178;24.622;2023-11-21T05:42:03;99552.53;;;2.96;100.00
12203;BME280;6164;42.178;24.622;2023-11-21T05:44:30;99556.28;;;3.03;100.00
12203;BME280;6164;42.178;24.622;2023-11-21T05:46:56;99558.66;;;2.95;100.00
12203;BME280;6164;42.178;24.622;2023-11-21T05:49:25;99560.13;;;2.88;100.00
12203;BME280;6164;42.178;24.622;2023-11-21T05:51:52;99558.06;;;2.92;100.00
12203;BME280;6164;42.178;24.622;2023-11-21T05:54:20;99549.06;;;2.96;100.00
12203;BME280;6164;42.178;24.622;2023-11-21T05:56:47;99552.78;;;2.93;100.00
12203;BME280;6164;42.178;24.622;2023-11-21T05:59:14;99556.31;;;2.92;100.00
12203;BME280;6164;42.178;24.622;2023-11-21T06:01:41;99559.63;;;2.94;100.00
12203;BME280;6164;42.178;24.622;2023-11-21T06:04:07;99559.03;;;2.91;100.00
12203;BME280;6164;42.178;24.622;2023-11-21T06:06:36;99565.09;;;2.91;100.00
12203;BME280;6164;42.178;24.622;2023-11-21T06:09:02;99557.38;;;2.90;100.00
12203;BME280;6164;42.178;24.622;2023-11-21T06:11:30;99565.69;;;2.95;100.00
12203;BME280;6164;42.178;24.622;2023-11-21T06:13:57;99564.94;;;3.04;100.00
12203;BME280;6164;42.178;24.622;2023-11-21T06:16:24;99570.50;;;3.21;100.00
12203;BME280;6164;42.178;24.622;2023-11-21T06:18:50;99582.53;;;3.33;100.00
12203;BME280;6164;42.178;24.622;2023-11-21T06:21:17;99577.97;;;3.46;100.00
12203;BME280;6164;42.178;24.622;2023-11-21T06:23:45;99576.66;;;3.52;100.00
12203;BME280;6164;42.178;24.622;2023-11-21T06:26:12;99568.91;;;3.61;100.00
12203;BME280;6164;42.178;24.622;2023-11-21T06:28:39;99573.63;;;3.67;100.00
12203;BME280;6164;42.178;24.622;2023-11-21T06:31:06;99570.16;;;3.78;100.00
12203;BME280;6164;42.178;24.622;2023-11-21T06:33:32;99568.31;;;3.89;100.00
12203;BME280;6164;42.178;24.622;2023-11-21T06:35:59;99575.84;;;4.03;100.00
12203;BME280;6164;42.178;24.622;2023-11-21T06:38:27;99573.53;;;4.10;100.00
12203;BME280;6164;42.178;24.622;2023-11-21T06:40:56;99581.44;;;4.20;100.00
12203;BME280;6164;42.178;24.622;2023-11-21T06:43:23;99571.72;;;4.31;100.00
12203;BME280;6164;42.178;24.622;2023-11-21T06:45:49;99569.31;;;4.39;100.00
12203;BME280;6164;42.178;24.622;2023-11-21T06:48:16;99566.91;;;4.57;100.00
12203;BME280;6164;42.178;24.622;2023-11-21T06:50:43;99565.28;;;4.65;100.00
12203;BME280;6164;42.178;24.622;2023-11-21T06:53:09;99568.59;;;4.67;100.00
12203;BME280;6164;42.178;24.622;2023-11-21T06:55:36;99565.75;;;4.80;100.00
12203;BME280;6164;42.178;24.622;2023-11-21T06:58:04;99571.84;;;4.90;100.00
12203;BME280;6164;42.178;24.622;2023-11-21T07:00:30;99561.41;;;4.99;100.00
12203;BME280;6164;42.178;24.622;2023-11-21T07:02:57;99567.09;;;5.14;100.00
12203;BME280;6164;42.178;24.622;2023-11-21T07:05:23;99568.91;;;5.23;100.00
12203;BME280;6164;42.178;24.622;2023-11-21T07:07:50;99574.97;;;5.33;100.00
12203;BME280;6164;42.178;24.622;2023-11-21T07:10:19;99583.94;;;5.40;100.00
12203;BME280;6164;42.178;24.622;2023-11-21T07:12:45;99591.69;;;5.51;100.00
12203;BME280;6164;42.178;24.622;2023-11-21T07:15:13;99585.91;;;5.67;100.00
12203;BME280;6164;42.178;24.622;2023-11-21T07:17:40;99573.13;;;5.83;100.00
12203;BME280;6164;42.178;24.622;2023-11-21T07:20:07;99573.94;;;5.93;100.00
12203;BME280;6164;42.178;24.622;2023-11-21T07:22:34;99566.06;;;6.02;100.00
12203;BME280;6164;42.178;24.622;2023-11-21T07:25:01;99563.69;;;6.09;100.00
12203;BME280;6164;42.178;24.622;2023-11-21T07:27:27;99558.44;;;6.18;100.00
12203;BME280;6164;42.178;24.622;2023-11-21T07:29:54;99544.34;;;6.29;100.00
12203;BME280;6164;42.178;24.622;2023-11-21T07:32:22;99546.91;;;6.48;100.00
12203;BME280;6164;42.178;24.622;2023-11-21T07:34:49;99554.56;;;6.68;100.00
12203;BME280;6164;42.178;24.622;2023-11-21T07:37:15;99547.88;;;6.84;100.00
12203;BME280;6164;42.178;24.622;2023-11-21T07:39:42;99553.75;;;6.95;100.00
12203;BME280;6164;42.178;24.622;2023-11-21T07:42:09;99556.56;;;7.11;100.00
12203;BME280;6164;42.178;24.622;2023-11-21T07:44:36;99562.66;;;7.29;100.00
12203;BME280;6164;42.178;24.622;2023-11-21T07:47:02;99554.25;;;7.43;100.00
12203;BME280;6164;42.178;24.622;2023-11-21T07:49:31;99550.97;;;7.59;100.00
12203;BME280;6164;42.178;24.622;2023-11-21T07:51:57;99564.25;;;7.75;100.00
12203;BME280;6164;42.178;24.622;2023-11-21T07:54:24;99555.84;;;7.89;100.00
12203;BME280;6164;42.178;24.622;2023-11-21T07:56:50;99561.38;;;8.03;100.00
12203;BME280;6164;42.178;24.622;2023-11-21T07:59:17;99557.22;;;8.19;100.00
12203;BME280;6164;42.178;24.622;2023-11-21T08:01:44;99549.91;;;8.30;100.00
12203;BME280;6164;42.178;24.622;2023-11-21T08:04:11;99547.50;;;8.37;100.00
12203;BME280;6164;42.178;24.622;2023-11-21T08:06:39;99549.38;;;8.52;100.00
12203;BME280;6164;42.178;24.622;2023-11-21T08:09:06;99550.28;;;8.69;100.00
12203;BME280;6164;42.178;24.622;2023-11-21T08:11:33;99549.84;;;8.81;100.00
12203;BME280;6164;42.178;24.622;2023-11-21T08:14:00;99544.00;;;8.95;100.00
12203;BME280;6164;42.178;24.622;2023-11-21T08:16:27;99537.81;;;9.12;100.00
12203;BME280;6164;42.178;24.622;2023-11-21T08:18:53;99532.38;;;9.22;100.00
12203;BME280;6164;42.178;24.622;2023-11-21T08:21:20;99530.78;;;9.29;100.00
12203;BME280;6164;42.178;24.622;2023-11-21T08:23:50;99525.69;;;9.36;100.00
12203;BME280;6164;42.178;24.622;2023-11-21T08:26:19;99528.16;;;9.53;100.00
12203;BME280;6164;42.178;24.622;2023-11-21T08:28:45;99529.84;;;9.70;100.00
12203;BME280;6164;42.178;24.622;2023-11-21T08:31:13;99517.31;;;9.88;100.00
12203;BME280;6164;42.178;24.622;2023-11-21T08:33:40;99519.94;;;10.04;100.00
12203;BME280;6164;42.178;24.622;2023-11-21T08:36:07;99513.34;;;10.16;100.00
12203;BME280;6164;42.178;24.622;2023-11-21T08:38:33;99526.69;;;10.31;100.00
12203;BME280;6164;42.178;24.622;2023-11-21T08:41:02;99522.38;;;10.46;100.00
12203;BME280;6164;42.178;24.622;2023-11-21T08:43:29;99517.88;;;10.46;100.00
12203;BME280;6164;42.178;24.622;2023-11-21T08:45:55;99518.19;;;10.59;100.00
12203;BME280;6164;42.178;24.622;2023-11-21T08:48:22;99501.50;;;10.67;100.00
12203;BME280;6164;42.178;24.622;2023-11-21T08:50:48;99500.78;;;10.81;100.00
12203;BME280;6164;42.178;24.622;2023-11-21T08:53:16;99494.81;;;10.87;100.00
12203;BME280;6164;42.178;24.622;2023-11-21T08:55:43;99489.16;;;10.98;100.00
12203;BME280;6164;42.178;24.622;2023-11-21T08:58:12;99485.13;;;11.10;100.00
12203;BME280;6164;42.178;24.622;2023-11-21T09:00:39;99483.59;;;11.16;100.00
12203;BME280;6164;42.178;24.622;2023-11-21T09:03:06;99469.84;;;11.20;100.00
12203;BME280;6164;42.178;24.622;2023-11-21T09:05:33;99463.22;;;11.24;100.00
12203;BME280;6164;42.178;24.622;2023-11-21T09:08:00;99461.66;;;11.38;100.00
12203;BME280;6164;42.178;24.622;2023-11-21T09:10:26;99462.53;;;11.53;100.00
12203;BME280;6164;42.178;24.622;2023-11-21T09:12:53;99460.28;;;11.42;100.00
12203;BME280;6164;42.178;24.622;2023-11-21T09:15:21;99451.38;;;11.43;100.00
12203;BME280;6164;42.178;24.622;2023-11-21T09:17:48;99453.41;;;11.55;100.00
12203;BME280;6164;42.178;24.622;2023-11-21T09:20:14;99446.56;;;11.69;100.00
12203;BME280;6164;42.178;24.622;2023-11-21T09:22:41;99438.81;;;11.82;100.00
12203;BME280;6164;42.178;24.622;2023-11-21T09:25:09;99439.84;;;11.96;100.00
12203;BME280;6164;42.178;24.622;2023-11-21T09:27:36;99427.91;;;12.00;100.00
12203;BME280;6164;42.178;24.622;2023-11-21T09:30:03;99430.81;;;11.90;100.00
12203;BME280;6164;42.178;24.622;2023-11-21T09:32:32;99432.91;;;11.94;100.00
12203;BME280;6164;42.178;24.622;2023-11-21T09:35:00;99434.09;;;12.07;100.00
12203;BME280;6164;42.178;24.622;2023-11-21T09:37:27;99434.00;;;12.00;100.00
12203;BME280;6164;42.178;24.622;2023-11-21T09:39:53;99423.81;;;12.12;100.00
12203;BME280;6164;42.178;24.622;2023-11-21T09:42:26;99422.34;;;12.24;100.00
12203;BME280;6164;42.178;24.622;2023-11-21T09:45:03;99414.50;;;12.30;100.00
12203;BME280;6164;42.178;24.622;2023-11-21T09:47:30;99417.88;;;12.39;100.00
12203;BME280;6164;42.178;24.622;2023-11-21T09:49:58;99409.47;;;12.50;100.00
12203;BME280;6164;42.178;24.622;2023-11-21T09:52:27;99400.19;;;12.60;100.00
12203;BME280;6164;42.178;24.622;2023-11-21T09:54:55;99388.50;;;12.69;100.00
12203;BME280;6164;42.178;24.622;2023-11-21T09:57:23;99392.50;;;12.80;100.00
12203;BME280;6164;42.178;24.622;2023-11-21T09:59:50;99395.03;;;12.88;95.10
12203;BME280;6164;42.178;24.622;2023-11-21T10:02:21;99394.41;;;12.86;88.50
12203;BME280;6164;42.178;24.622;2023-11-21T10:04:51;99388.69;;;13.03;87.76
12203;BME280;6164;42.178;24.622;2023-11-21T10:07:19;99385.00;;;13.19;85.27
12203;BME280;6164;42.178;24.622;2023-11-21T10:09:46;99388.75;;;13.31;83.37
12203;BME280;6164;42.178;24.622;2023-11-21T10:12:13;99384.13;;;13.40;80.36
12203;BME280;6164;42.178;24.622;2023-11-21T10:14:41;99385.22;;;13.45;78.42
12203;BME280;6164;42.178;24.622;2023-11-21T10:17:09;99384.69;;;13.56;80.75
12203;BME280;6164;42.178;24.622;2023-11-21T10:19:37;99382.31;;;13.68;81.76
12203;BME280;6164;42.178;24.622;2023-11-21T10:22:05;99384.81;;;13.76;78.48
12203;BME280;6164;42.178;24.622;2023-11-21T10:24:33;99383.72;;;13.91;78.39
12203;BME280;6164;42.178;24.622;2023-11-21T10:27:00;99367.88;;;14.04;78.80
12203;BME280;6164;42.178;24.622;2023-11-21T10:29:28;99373.88;;;14.19;76.67
12203;BME280;6164;42.178;24.622;2023-11-21T10:31:55;99372.13;;;14.26;74.71
12203;BME280;6164;42.178;24.622;2023-11-21T10:34:24;99389.47;;;14.29;72.74
12203;BME280;6164;42.178;24.622;2023-11-21T10:36:52;99376.22;;;14.29;73.98
12203;BME280;6164;42.178;24.622;2023-11-21T10:39:22;99368.81;;;14.24;72.59
12203;BME280;6164;42.178;24.622;2023-11-21T10:41:50;99370.50;;;14.32;71.44
12203;BME280;6164;42.178;24.622;2023-11-21T10:44:17;99369.31;;;14.34;71.85
12203;BME280;6164;42.178;24.622;2023-11-21T10:46:46;99358.50;;;14.42;73.16
12203;BME280;6164;42.178;24.622;2023-11-21T10:49:16;99361.34;;;14.34;70.74
12203;BME280;6164;42.178;24.622;2023-11-21T10:51:43;99353.16;;;14.36;71.31
12203;BME280;6164;42.178;24.622;2023-11-21T10:54:10;99347.22;;;14.34;71.76
12203;BME280;6164;42.178;24.622;2023-11-21T10:56:37;99342.94;;;14.33;71.90
12203;BME280;6164;42.178;24.622;2023-11-21T10:59:08;99333.34;;;14.38;73.61
12203;BME280;6164;42.178;24.622;2023-11-21T11:01:36;99324.97;;;14.41;73.54
12203;BME280;6164;42.178;24.622;2023-11-21T11:04:03;99318.25;;;14.45;73.31
12203;BME280;6164;42.178;24.622;2023-11-21T11:06:34;99320.72;;;14.47;73.37
12203;BME280;6164;42.178;24.622;2023-11-21T11:09:04;99315.19;;;14.48;74.06
12203;BME280;6164;42.178;24.622;2023-11-21T11:11:33;99317.03;;;14.48;72.65
12203;BME280;6164;42.178;24.622;2023-11-21T11:14:04;99293.53;;;14.45;73.91
12203;BME280;6164;42.178;24.622;2023-11-21T11:16:33;99294.13;;;14.40;72.05
12203;BME280;6164;42.178;24.622;2023-11-21T11:18:59;99286.38;;;14.39;72.67
12203;BME280;6164;42.178;24.622;2023-11-21T11:21:28;99271.25;;;14.39;72.75
12203;BME280;6164;42.178;24.622;2023-11-21T11:24:02;99252.06;;;14.37;72.62
12203;BME280;6164;42.178;24.622;2023-11-21T11:26:36;99251.22;;;14.37;71.17
12203;BME280;6164;42.178;24.622;2023-11-21T11:29:08;99229.13;;;14.30;71.84
12203;BME280;6164;42.178;24.622;2023-11-21T11:31:40;99209.13;;;14.27;73.20
12203;BME280;6164;42.178;24.622;2023-11-21T11:34:17;99201.38;;;14.26;71.89
12203;BME280;6164;42.178;24.622;2023-11-21T11:36:48;99193.56;;;14.24;72.00
12203;BME280;6164;42.178;24.622;2023-11-21T11:39:28;99222.75;;;14.18;71.26
12203;BME280;6164;42.178;24.622;2023-11-21T11:41:55;99214.41;;;14.21;72.01
12203;BME280;6164;42.178;24.622;2023-11-21T11:47:05;99211.53;;;14.22;71.27
12203;BME280;6164;42.178;24.622;2023-11-21T11:49:39;99202.53;;;14.23;71.68
12203;BME280;6164;42.178;24.622;2023-11-21T11:52:33;99192.56;;;14.25;71.46
12203;BME280;6164;42.178;24.622;2023-11-21T11:55:00;99172.34;;;14.24;73.19
12203;BME280;6164;42.178;24.622;2023-11-21T11:57:27;99164.19;;;14.26;75.13
12203;BME280;6164;42.178;24.622;2023-11-21T12:00:08;99178.47;;;14.25;73.76
12203;BME280;6164;42.178;24.622;2023-11-21T12:02:37;99177.47;;;14.26;72.96
12203;BME280;6164;42.178;24.622;2023-11-21T12:05:08;99174.00;;;14.25;73.54
12203;BME280;6164;42.178;24.622;2023-11-21T12:07:44;99193.56;;;14.24;70.93
12203;BME280;6164;42.178;24.622;2023-11-21T12:10:11;99186.63;;;14.23;71.60
12203;BME280;6164;42.178;24.622;2023-11-21T12:12:42;99180.72;;;14.21;72.87
12203;BME280;6164;42.178;24.622;2023-11-21T12:15:09;99189.88;;;14.19;69.81
12203;BME280;6164;42.178;24.622;2023-11-21T12:17:35;99189.44;;;14.15;69.63
12203;BME280;6164;42.178;24.622;2023-11-21T12:20:04;99198.66;;;14.13;68.96
12203;BME280;6164;42.178;24.622;2023-11-21T12:22:31;99206.81;;;14.11;69.20
12203;BME280;6164;42.178;24.622;2023-11-21T12:24:58;99199.66;;;14.12;70.64
12203;BME280;6164;42.178;24.622;2023-11-21T12:27:24;99198.25;;;14.16;71.70
12203;BME280;6164;42.178;24.622;2023-11-21T12:29:51;99195.19;;;14.19;70.53
12203;BME280;6164;42.178;24.622;2023-11-21T12:32:17;99198.88;;;14.24;70.34
12203;BME280;6164;42.178;24.622;2023-11-21T12:34:46;99197.06;;;14.25;70.57
12203;BME280;6164;42.178;24.622;2023-11-21T12:37:14;99198.31;;;14.29;70.24
12203;BME280;6164;42.178;24.622;2023-11-21T12:39:41;99207.13;;;14.36;70.08
12203;BME280;6164;42.178;24.622;2023-11-21T12:42:08;99207.13;;;14.42;69.41
12203;BME280;6164;42.178;24.622;2023-11-21T12:44:35;99180.97;;;14.46;71.29
12203;BME280;6164;42.178;24.622;2023-11-21T12:47:02;99169.13;;;14.48;71.34
12203;BME280;6164;42.178;24.622;2023-11-21T12:49:30;99178.31;;;14.46;69.71
12203;BME280;6164;42.178;24.622;2023-11-21T12:51:59;99166.66;;;14.40;69.52
12203;BME280;6164;42.178;24.622;2023-11-21T12:54:27;99174.22;;;14.37;69.12
12203;BME280;6164;42.178;24.622;2023-11-21T12:56:53;99175.66;;;14.33;69.76
12203;BME280;6164;42.178;24.622;2023-11-21T12:59:20;99177.69;;;14.31;69.16
12203;BME280;6164;42.178;24.622;2023-11-21T13:01:47;99168.91;;;14.30;70.47
12203;BME280;6164;42.178;24.622;2023-11-21T13:04:16;99170.94;;;14.28;70.37